Terminal Aerodrome Forecast
Issued by NWS

Home | Current Version | Previous Version | Text Only | Print | Product List | Glossary On
Versions: 1 2 3 4 5 6 7 8 9 10 11 12 13 14 15 16 17 18 19 20 21 22 23 24 25 26 27 28 29 30
980
FTUS45 KSLC 251737
TAFSGU
TAF
KSGU 251737Z 2518/2618 08005KT P6SM SCT180
     FM252000 26010KT P6SM FEW110 SCT180
     FM260400 11006KT P6SM FEW150
     FM261600 23010KT P6SM SCT150=

USA.gov is the U.S. government's official web portal to all federal, state and local government web resources and services.